createdAt,value
2022-08-26T00:01:53.932Z,18.92
2022-08-26T00:04:23.442Z,14.52
2022-08-26T00:06:51.249Z,14.57
2022-08-26T00:09:20.292Z,14.68
2022-08-26T00:11:48.686Z,16.17
2022-08-26T00:14:17.336Z,18.50
2022-08-26T00:16:48.171Z,18.27
2022-08-26T00:19:17.855Z,17.65
2022-08-26T00:21:46.044Z,18.88
2022-08-26T00:24:14.302Z,19.27
2022-08-26T00:26:43.752Z,15.50
2022-08-26T00:29:13.110Z,18.48
2022-08-26T00:31:40.955Z,19.15
2022-08-26T00:34:11.339Z,23.95
2022-08-26T00:36:41.369Z,16.40
2022-08-26T00:39:10.008Z,17.65
2022-08-26T00:41:40.031Z,15.98
2022-08-26T00:44:11.051Z,21.75
2022-08-26T00:46:46.615Z,14.50
2022-08-26T00:49:18.152Z,17.30
2022-08-26T00:51:50.483Z,19.17
2022-08-26T00:54:21.051Z,18.77
2022-08-26T00:56:56.035Z,16.33
2022-08-26T00:59:26.286Z,19.60
2022-08-26T01:01:54.375Z,21.15
2022-08-26T01:04:26.128Z,18.27
2022-08-26T01:06:55.094Z,24.25
2022-08-26T01:09:23.386Z,25.20
2022-08-26T01:11:53.733Z,21.27
2022-08-26T01:14:22.772Z,21.48
2022-08-26T01:16:52.279Z,18.48
2022-08-26T01:19:24.998Z,14.32
2022-08-26T01:21:57.218Z,17.15
2022-08-26T01:24:28.526Z,17.48
2022-08-26T01:26:58.976Z,18.90
2022-08-26T01:29:27.329Z,18.48
2022-08-26T01:31:57.033Z,19.35
2022-08-26T01:34:28.794Z,17.65
2022-08-26T01:37:06.892Z,17.98
2022-08-26T01:39:37.999Z,15.98
2022-08-26T01:42:14.674Z,21.92
2022-08-26T01:44:47.013Z,15.85
2022-08-26T01:47:18.519Z,25.98
2022-08-26T01:49:49.308Z,14.15
2022-08-26T01:52:23.882Z,19.42
2022-08-26T01:54:58.246Z,20.50
2022-08-26T01:57:27.973Z,16.35
2022-08-26T02:00:00.641Z,16.38
2022-08-26T02:02:29.032Z,19.98
2022-08-26T02:05:00.846Z,27.00
2022-08-26T02:07:29.745Z,23.45
2022-08-26T02:09:58.963Z,17.88
2022-08-26T02:12:27.421Z,22.50
2022-08-26T02:14:59.208Z,15.18
2022-08-26T02:17:31.193Z,16.77
2022-08-26T02:19:59.311Z,19.38
2022-08-26T02:22:27.030Z,15.38
2022-08-26T02:24:57.580Z,18.50
2022-08-26T02:27:32.109Z,23.42
2022-08-26T02:30:07.994Z,17.85
2022-08-26T02:32:35.836Z,19.42
2022-08-26T02:35:03.451Z,21.65
2022-08-26T02:37:32.449Z,21.30
2022-08-26T02:40:02.012Z,21.27
2022-08-26T02:42:32.437Z,18.15
2022-08-26T02:45:00.375Z,16.80
2022-08-26T02:47:28.991Z,18.70
2022-08-26T02:49:57.099Z,18.20
2022-08-26T02:52:25.364Z,23.13
2022-08-26T02:54:53.123Z,19.02
2022-08-26T02:57:22.203Z,17.83
2022-08-26T02:59:51.346Z,20.83
2022-08-26T03:02:19.195Z,18.98
2022-08-26T03:04:57.524Z,22.92
2022-08-26T03:07:28.501Z,18.95
2022-08-26T03:09:56.832Z,20.95
2022-08-26T03:12:25.643Z,26.13
2022-08-26T03:14:54.873Z,21.60
2022-08-26T03:17:22.630Z,20.75
2022-08-26T03:19:57.040Z,24.70
2022-08-26T03:22:25.884Z,17.98
2022-08-26T03:24:54.962Z,22.30
2022-08-26T03:27:22.621Z,21.13
2022-08-26T03:30:13.139Z,19.90
2022-08-26T03:32:44.494Z,22.70
2022-08-26T03:35:12.799Z,23.52
2022-08-26T03:37:41.642Z,22.48
2022-08-26T03:40:11.712Z,17.02
2022-08-26T03:42:40.950Z,20.15
2022-08-26T03:45:14.074Z,22.30
2022-08-26T03:47:44.570Z,16.35
2022-08-26T03:50:14.573Z,18.67
2022-08-26T03:52:44.059Z,22.20
2022-08-26T03:55:12.458Z,21.70
2022-08-26T03:57:40.101Z,20.50
2022-08-26T04:00:14.049Z,20.95
2022-08-26T04:02:51.129Z,18.15
2022-08-26T04:05:23.182Z,18.67
2022-08-26T04:07:51.158Z,18.77
2022-08-26T04:10:28.494Z,24.42
2022-08-26T04:12:58.732Z,22.88
2022-08-26T04:15:34.441Z,20.30
2022-08-26T04:18:03.426Z,20.20
2022-08-26T04:20:31.929Z,22.58
2022-08-26T04:22:59.622Z,26.63
2022-08-26T04:25:27.301Z,20.15
2022-08-26T04:27:55.412Z,22.45
2022-08-26T04:30:23.164Z,18.42
2022-08-26T04:32:51.777Z,21.60
2022-08-26T04:35:25.727Z,21.13
2022-08-26T04:37:54.383Z,22.25
2022-08-26T04:40:22.198Z,27.67
2022-08-26T04:42:50.229Z,20.23
2022-08-26T04:45:19.169Z,21.80
2022-08-26T04:47:54.406Z,23.05
2022-08-26T04:50:25.819Z,21.83
2022-08-26T04:52:55.021Z,21.85
2022-08-26T04:55:25.211Z,17.10
2022-08-26T04:58:08.813Z,18.75
2022-08-26T05:00:38.509Z,17.45
2022-08-26T05:03:07.267Z,17.13
2022-08-26T05:05:41.917Z,20.35
2022-08-26T05:08:11.402Z,16.98
2022-08-26T05:10:43.500Z,17.33
2022-08-26T05:13:14.233Z,15.82
2022-08-26T05:15:43.895Z,15.20
2022-08-26T05:18:12.019Z,19.58
2022-08-26T05:20:43.147Z,15.57
2022-08-26T05:23:10.914Z,16.55
2022-08-26T05:25:40.417Z,17.33
2022-08-26T05:28:08.054Z,17.52
2022-08-26T05:30:36.983Z,15.35
2022-08-26T05:33:05.823Z,17.30
2022-08-26T05:35:34.371Z,12.20
2022-08-26T05:38:06.556Z,14.73
2022-08-26T05:40:40.625Z,15.55
2022-08-26T05:43:10.564Z,15.00
2022-08-26T05:45:44.887Z,15.00
2022-08-26T05:48:16.126Z,12.65
2022-08-26T05:50:45.991Z,13.77
2022-08-26T05:53:18.100Z,13.15
2022-08-26T05:55:47.953Z,14.82
2022-08-26T05:58:17.436Z,10.90
2022-08-26T06:00:45.691Z,11.55
2022-08-26T06:03:13.530Z,14.15
2022-08-26T06:05:42.541Z,12.30
2022-08-26T06:08:19.426Z,21.10
2022-08-26T06:10:50.174Z,16.83
2022-08-26T06:13:20.229Z,14.35
2022-08-26T06:15:50.265Z,12.35
2022-08-26T06:18:20.236Z,14.27
2022-08-26T06:20:56.930Z,11.60
2022-08-26T06:23:45.010Z,14.95
2022-08-26T06:26:14.774Z,14.07
2022-08-26T06:28:45.310Z,14.27
2022-08-26T06:31:13.582Z,15.13
2022-08-26T06:33:41.316Z,14.10
2022-08-26T06:36:09.256Z,14.10
2022-08-26T06:38:37.564Z,15.23
2022-08-26T06:41:05.261Z,18.27
2022-08-26T06:43:35.215Z,15.60
2022-08-26T06:46:07.714Z,9.88
2022-08-26T06:48:38.910Z,11.43
2022-08-26T06:51:10.558Z,12.80
2022-08-26T06:53:41.194Z,14.68
2022-08-26T06:56:13.527Z,14.52
2022-08-26T06:58:45.280Z,13.90
2022-08-26T07:01:21.821Z,14.25
2022-08-26T07:03:53.261Z,10.00
2022-08-26T07:06:24.590Z,13.48
2022-08-26T07:09:01.891Z,10.68
2022-08-26T07:11:34.035Z,16.60
2022-08-26T07:14:05.615Z,13.93
2022-08-26T07:16:34.067Z,14.70
2022-08-26T07:19:11.103Z,13.90
2022-08-26T07:21:40.376Z,12.82
2022-08-26T07:24:08.685Z,15.05
2022-08-26T07:26:43.186Z,13.15
2022-08-26T07:29:12.701Z,10.63
2022-08-26T07:31:42.449Z,15.77
2022-08-26T07:34:10.787Z,15.27
2022-08-26T07:36:38.929Z,14.23
2022-08-26T07:39:07.240Z,14.93
2022-08-26T07:41:36.509Z,17.58
2022-08-26T07:44:04.724Z,17.23
2022-08-26T07:46:35.078Z,12.15
2022-08-26T07:49:02.835Z,14.52
2022-08-26T07:51:31.846Z,14.23
2022-08-26T07:53:59.599Z,16.13
2022-08-26T07:56:27.774Z,15.00
2022-08-26T07:58:55.858Z,15.13
2022-08-26T08:01:26.785Z,13.52
2022-08-26T08:03:56.271Z,17.58
2022-08-26T08:06:27.168Z,17.48
2022-08-26T08:08:56.093Z,17.80
2022-08-26T08:11:24.134Z,16.10
2022-08-26T08:13:56.511Z,10.95
2022-08-26T08:16:26.268Z,22.75
2022-08-26T08:18:54.399Z,15.95
2022-08-26T08:21:25.262Z,16.00
2022-08-26T08:23:54.242Z,14.68
2022-08-26T08:26:23.126Z,15.27
2022-08-26T08:28:51.271Z,16.88
2022-08-26T08:31:38.752Z,14.10
2022-08-26T08:34:08.101Z,16.38
2022-08-26T08:36:37.224Z,16.58
2022-08-26T08:39:06.496Z,17.15
2022-08-26T08:41:50.281Z,17.00
2022-08-26T08:44:21.381Z,14.43
2022-08-26T08:46:56.259Z,18.25
2022-08-26T08:49:26.116Z,10.60
2022-08-26T08:52:00.759Z,13.45
2022-08-26T08:54:29.118Z,14.27
2022-08-26T08:57:03.880Z,17.77
2022-08-26T08:59:34.865Z,12.98
2022-08-26T09:02:12.228Z,16.83
2022-08-26T09:05:00.299Z,15.80
2022-08-26T09:07:37.545Z,14.45
2022-08-26T09:10:18.819Z,18.23
2022-08-26T09:12:48.550Z,14.45
2022-08-26T09:15:20.305Z,18.50
2022-08-26T09:17:59.877Z,16.58
2022-08-26T09:20:49.453Z,12.85
2022-08-26T09:23:19.618Z,22.58
2022-08-26T09:25:50.394Z,15.80
2022-08-26T09:28:20.737Z,18.33
2022-08-26T09:31:01.426Z,11.90
2022-08-26T09:33:31.489Z,13.82
2022-08-26T09:36:14.970Z,15.57
2022-08-26T09:38:44.570Z,19.17
2022-08-26T09:41:31.678Z,23.92
2022-08-26T09:44:14.683Z,18.83
2022-08-26T09:46:47.218Z,19.25
2022-08-26T09:49:26.430Z,17.98
2022-08-26T09:52:19.289Z,18.85
2022-08-26T09:55:02.266Z,21.67
2022-08-26T09:57:34.267Z,18.50
2022-08-26T10:00:02.877Z,12.55
2022-08-26T10:02:38.724Z,15.00
2022-08-26T10:05:11.386Z,23.67
2022-08-26T10:07:43.471Z,14.95
2022-08-26T10:10:18.338Z,17.08
2022-08-26T10:12:54.535Z,20.15
2022-08-26T10:15:25.317Z,18.23
2022-08-26T10:17:59.628Z,23.67
2022-08-26T10:20:32.381Z,15.68
2022-08-26T10:23:05.347Z,21.85
2022-08-26T10:25:39.278Z,16.08
2022-08-26T10:28:13.705Z,16.33
2022-08-26T10:30:46.834Z,20.15
2022-08-26T10:33:18.132Z,19.02
2022-08-26T10:35:51.726Z,14.48
2022-08-26T10:38:23.785Z,17.20
2022-08-26T10:41:00.141Z,25.30
2022-08-26T10:43:31.537Z,19.20
2022-08-26T10:46:04.357Z,20.67
2022-08-26T10:48:40.036Z,23.70
2022-08-26T10:51:08.640Z,22.40
2022-08-26T10:53:44.550Z,17.40
2022-08-26T10:56:23.617Z,18.92
2022-08-26T10:59:02.818Z,14.30
2022-08-26T11:01:47.183Z,19.88
2022-08-26T11:04:48.101Z,24.50
2022-08-26T11:07:37.566Z,19.20
2022-08-26T11:10:25.038Z,14.82
2022-08-26T11:12:57.963Z,13.48
2022-08-26T11:16:09.371Z,9.95
2022-08-26T11:18:46.328Z,16.25
2022-08-26T11:21:47.778Z,7.45
2022-08-26T11:25:02.436Z,12.13
2022-08-26T11:28:01.449Z,9.68
2022-08-26T11:30:57.553Z,6.88
2022-08-26T11:33:59.947Z,6.13
2022-08-26T11:36:59.037Z,6.32
2022-08-26T11:39:30.653Z,6.22
2022-08-26T11:42:01.101Z,10.10
2022-08-26T11:44:38.926Z,11.40
2022-08-26T11:47:11.450Z,8.05
2022-08-26T11:49:39.801Z,13.30
2022-08-26T11:52:16.926Z,11.00
2022-08-26T11:55:00.472Z,7.72
2022-08-26T11:57:28.737Z,10.38
2022-08-26T11:59:58.490Z,15.90
2022-08-26T12:02:27.865Z,13.88
2022-08-26T12:04:56.748Z,21.77
2022-08-26T12:07:28.094Z,16.23
2022-08-26T12:09:59.034Z,14.07
2022-08-26T12:12:34.712Z,21.63
2022-08-26T12:15:17.065Z,12.02
2022-08-26T12:17:49.430Z,16.23
2022-08-26T12:20:45.702Z,12.27
2022-08-26T12:23:28.953Z,13.65
2022-08-26T12:26:05.837Z,11.93
2022-08-26T12:28:34.121Z,15.80
2022-08-26T12:31:06.653Z,14.13
2022-08-26T12:33:37.040Z,9.20
2022-08-26T12:36:06.087Z,10.10
2022-08-26T12:38:37.583Z,11.40
2022-08-26T12:41:05.544Z,12.55
2022-08-26T12:43:42.523Z,10.55
2022-08-26T12:46:15.410Z,14.40
2022-08-26T12:48:46.003Z,11.50
2022-08-26T12:51:24.105Z,9.30
2022-08-26T12:53:52.672Z,15.35
2022-08-26T12:56:29.739Z,8.98
2022-08-26T12:59:07.568Z,11.40
2022-08-26T13:01:43.658Z,11.68
2022-08-26T13:04:34.858Z,10.77
2022-08-26T13:07:21.132Z,13.65
2022-08-26T13:09:50.233Z,10.93
2022-08-26T13:12:29.555Z,9.65
2022-08-26T13:14:59.553Z,11.48
2022-08-26T13:17:30.316Z,13.75
2022-08-26T13:20:03.485Z,11.57
2022-08-26T13:22:32.584Z,11.68
2022-08-26T13:25:00.815Z,13.02
2022-08-26T13:27:29.095Z,15.25
2022-08-26T13:29:57.833Z,11.70
2022-08-26T13:32:28.215Z,11.52
2022-08-26T13:34:58.571Z,12.07
2022-08-26T13:37:34.883Z,10.60
2022-08-26T13:40:05.948Z,8.57
2022-08-26T13:42:34.527Z,8.32
2022-08-26T13:45:04.819Z,8.45
2022-08-26T13:47:33.921Z,8.82
2022-08-26T13:50:01.748Z,8.82
2022-08-26T13:52:30.581Z,11.18
2022-08-26T13:55:00.159Z,9.02
2022-08-26T13:57:28.435Z,6.65
2022-08-26T13:59:58.955Z,9.30
2022-08-26T14:02:27.346Z,10.77
2022-08-26T14:04:56.468Z,5.30
2022-08-26T14:07:24.440Z,7.05
2022-08-26T14:09:52.241Z,10.13
2022-08-26T14:12:19.926Z,6.35
2022-08-26T14:14:48.141Z,9.20
2022-08-26T14:17:19.363Z,7.25
2022-08-26T14:19:50.617Z,6.63
2022-08-26T14:22:22.400Z,4.75
2022-08-26T14:24:50.591Z,5.35
2022-08-26T14:27:18.329Z,5.05
2022-08-26T14:29:46.004Z,8.68
2022-08-26T14:32:21.692Z,6.32
2022-08-26T14:34:50.178Z,7.85
2022-08-26T14:37:20.120Z,7.90
2022-08-26T14:39:48.613Z,8.23
2022-08-26T14:42:21.179Z,8.63
2022-08-26T14:44:57.390Z,7.68
2022-08-26T14:47:25.297Z,5.75
2022-08-26T14:49:52.976Z,8.10
2022-08-26T14:52:22.007Z,6.90
2022-08-26T14:54:48.835Z,5.50
2022-08-26T14:57:22.605Z,7.97
2022-08-26T14:59:50.637Z,7.72
2022-08-26T15:02:32.713Z,7.05
2022-08-26T15:05:02.115Z,9.02
2022-08-26T15:07:31.178Z,7.97
2022-08-26T15:09:58.878Z,8.27
2022-08-26T15:12:26.699Z,8.82
2022-08-26T15:14:54.424Z,8.45
2022-08-26T15:17:22.073Z,9.98
2022-08-26T15:19:49.991Z,8.27
2022-08-26T15:22:17.788Z,8.43
2022-08-26T15:24:47.002Z,11.88
2022-08-26T15:27:19.571Z,6.75
2022-08-26T15:29:47.538Z,10.70
2022-08-26T15:32:15.512Z,7.93
2022-08-26T15:34:43.288Z,10.13
2022-08-26T15:37:11.010Z,10.00
2022-08-26T15:39:38.796Z,8.32
2022-08-26T15:42:08.419Z,10.65
2022-08-26T15:44:36.729Z,9.65
2022-08-26T15:47:04.684Z,6.90
2022-08-26T15:49:32.919Z,8.40
2022-08-26T15:52:02.765Z,7.88
2022-08-26T15:54:33.243Z,9.98
2022-08-26T15:57:02.530Z,10.98
2022-08-26T15:59:31.962Z,7.93
2022-08-26T16:02:00.335Z,10.00
2022-08-26T16:04:28.620Z,10.35
2022-08-26T16:06:56.353Z,10.43
2022-08-26T16:09:27.166Z,10.32
2022-08-26T16:11:55.836Z,11.90
2022-08-26T16:14:24.147Z,11.68
2022-08-26T16:16:53.919Z,12.52
2022-08-26T16:19:22.074Z,11.50
2022-08-26T16:21:51.403Z,13.25
2022-08-26T16:24:24.806Z,12.98
2022-08-26T16:26:54.576Z,9.68
2022-08-26T16:29:22.257Z,11.18
2022-08-26T16:31:53.180Z,11.38
2022-08-26T16:34:23.006Z,12.77
2022-08-26T16:36:50.866Z,11.40
2022-08-26T16:39:18.640Z,12.07
2022-08-26T16:41:46.293Z,10.85
2022-08-26T16:44:14.012Z,12.25
2022-08-26T16:46:41.800Z,12.02
2022-08-26T16:49:09.574Z,9.38
2022-08-26T16:51:38.728Z,9.45
2022-08-26T16:54:08.023Z,9.98
2022-08-26T16:56:36.176Z,10.52
2022-08-26T16:59:04.573Z,11.18
2022-08-26T17:01:32.343Z,9.80
2022-08-26T17:04:00.100Z,10.85
2022-08-26T17:06:27.826Z,10.98
2022-08-26T17:08:56.859Z,10.98
2022-08-26T17:11:24.586Z,10.52
2022-08-26T17:13:52.242Z,14.20
2022-08-26T17:16:23.338Z,17.35
2022-08-26T17:18:54.306Z,12.52
2022-08-26T17:21:22.079Z,12.60
2022-08-26T17:23:50.246Z,13.15
2022-08-26T17:26:19.384Z,12.10
2022-08-26T17:28:47.354Z,12.50
2022-08-26T17:31:15.135Z,10.23
2022-08-26T17:33:42.849Z,10.43
2022-08-26T17:36:11.265Z,11.80
2022-08-26T17:38:39.735Z,13.07
2022-08-26T17:41:08.996Z,12.32
2022-08-26T17:43:38.996Z,10.52
2022-08-26T17:46:08.717Z,11.25
2022-08-26T17:48:37.903Z,11.48
2022-08-26T17:51:08.529Z,11.88
2022-08-26T17:53:36.225Z,11.15
2022-08-26T17:56:06.940Z,11.32
2022-08-26T17:58:36.659Z,12.52
2022-08-26T18:01:06.703Z,11.68
2022-08-26T18:03:35.251Z,12.02
2022-08-26T18:06:04.011Z,12.43
2022-08-26T18:08:31.702Z,10.95
2022-08-26T18:10:59.810Z,13.50
2022-08-26T18:13:27.466Z,11.85
2022-08-26T18:15:55.264Z,13.88
2022-08-26T18:18:24.289Z,11.38
2022-08-26T18:20:54.110Z,11.93
2022-08-26T18:23:31.408Z,14.15
2022-08-26T18:25:59.342Z,14.38
2022-08-26T18:28:26.947Z,12.00
2022-08-26T18:30:54.621Z,13.40
2022-08-26T18:33:26.611Z,12.55
2022-08-26T18:35:54.292Z,10.55
2022-08-26T18:38:22.366Z,11.93
2022-08-26T18:40:50.242Z,13.23
2022-08-26T18:43:17.902Z,11.65
2022-08-26T18:45:45.932Z,12.80
2022-08-26T18:48:14.709Z,18.83
2022-08-26T18:50:47.318Z,15.27
2022-08-26T18:53:15.660Z,12.13
2022-08-26T18:55:43.421Z,13.23
2022-08-26T18:58:14.198Z,14.93
2022-08-26T19:00:41.906Z,14.98
2022-08-26T19:03:18.401Z,14.25
2022-08-26T19:05:48.083Z,18.90
2022-08-26T19:08:15.742Z,12.82
2022-08-26T19:10:43.520Z,12.40
2022-08-26T19:13:11.304Z,13.85
2022-08-26T19:15:40.177Z,13.75
2022-08-26T19:18:08.974Z,16.10
2022-08-26T19:20:42.426Z,14.43
2022-08-26T19:23:31.100Z,14.68
2022-08-26T19:26:03.052Z,15.63
2022-08-26T19:28:31.654Z,12.32
2022-08-26T19:30:59.810Z,14.80
2022-08-26T19:33:28.273Z,15.00
2022-08-26T19:35:56.102Z,18.05
2022-08-26T19:38:25.179Z,19.55
2022-08-26T19:40:55.460Z,17.98
2022-08-26T19:43:23.223Z,16.95
2022-08-26T19:45:51.005Z,15.48
2022-08-26T19:48:18.849Z,15.02
2022-08-26T19:50:47.411Z,14.90
2022-08-26T19:53:15.365Z,12.98
2022-08-26T19:55:44.375Z,14.05
2022-08-26T19:58:12.478Z,16.55
2022-08-26T20:00:42.313Z,17.83
2022-08-26T20:03:10.628Z,17.90
2022-08-26T20:05:42.460Z,13.98
2022-08-26T20:08:21.979Z,15.82
2022-08-26T20:10:52.460Z,16.00
2022-08-26T20:13:21.909Z,15.32
2022-08-26T20:15:49.547Z,17.75
2022-08-26T20:18:34.997Z,17.60
2022-08-26T20:21:20.480Z,13.95
2022-08-26T20:23:48.388Z,17.00
2022-08-26T20:26:17.385Z,17.65
2022-08-26T20:28:45.921Z,16.02
2022-08-26T20:31:15.612Z,14.90
2022-08-26T20:33:46.285Z,16.58
2022-08-26T20:36:16.067Z,17.50
2022-08-26T20:38:45.171Z,15.10
2022-08-26T20:41:13.300Z,13.75
2022-08-26T20:43:46.130Z,16.55
2022-08-26T20:46:18.134Z,14.65
2022-08-26T20:48:46.938Z,15.43
2022-08-26T20:51:14.723Z,15.43
2022-08-26T20:53:44.182Z,14.45
2022-08-26T20:56:13.597Z,16.10
2022-08-26T20:58:43.316Z,14.98
2022-08-26T21:01:18.986Z,14.25
2022-08-26T21:03:47.014Z,15.85
2022-08-26T21:06:14.956Z,14.30
2022-08-26T21:08:43.358Z,14.30
2022-08-26T21:11:12.305Z,16.15
2022-08-26T21:14:01.680Z,15.23
2022-08-26T21:16:29.811Z,16.42
2022-08-26T21:18:57.664Z,15.43
2022-08-26T21:21:28.836Z,17.60
2022-08-26T21:23:57.372Z,16.35
2022-08-26T21:26:25.514Z,15.60
2022-08-26T21:28:53.492Z,14.95
2022-08-26T21:31:23.903Z,17.25
2022-08-26T21:33:54.037Z,16.92
2022-08-26T21:36:21.951Z,21.05
2022-08-26T21:38:49.783Z,15.70
2022-08-26T21:41:21.909Z,19.48
2022-08-26T21:43:51.031Z,15.98
2022-08-26T21:46:22.065Z,17.98
2022-08-26T21:48:51.956Z,17.77
2022-08-26T21:51:23.150Z,17.05
2022-08-26T21:53:52.938Z,16.25
2022-08-26T21:56:22.162Z,15.57
2022-08-26T21:58:52.519Z,14.90
2022-08-26T22:01:23.369Z,15.85
2022-08-26T22:03:53.211Z,14.48
2022-08-26T22:06:28.829Z,16.30
2022-08-26T22:08:57.303Z,21.25
2022-08-26T22:11:26.053Z,14.50
2022-08-26T22:13:55.212Z,15.43
2022-08-26T22:16:23.103Z,15.02
2022-08-26T22:18:51.200Z,15.10
2022-08-26T22:21:23.854Z,14.32
2022-08-26T22:23:51.879Z,16.75
2022-08-26T22:26:31.713Z,16.15
2022-08-26T22:29:01.165Z,14.60
2022-08-26T22:31:36.902Z,14.05
2022-08-26T22:34:07.872Z,15.35
2022-08-26T22:36:42.696Z,21.33
2022-08-26T22:39:13.057Z,18.38
2022-08-26T22:41:41.311Z,17.13
2022-08-26T22:44:09.036Z,16.98
2022-08-26T22:46:38.658Z,15.88
2022-08-26T22:49:06.471Z,16.92
2022-08-26T22:51:34.612Z,19.80
2022-08-26T22:54:03.855Z,18.40
2022-08-26T22:56:31.875Z,16.27
2022-08-26T22:58:59.952Z,14.73
2022-08-26T23:01:31.266Z,15.93
2022-08-26T23:03:59.074Z,18.38
2022-08-26T23:06:26.963Z,16.58
2022-08-26T23:08:54.635Z,17.42
2022-08-26T23:11:23.782Z,17.92
2022-08-26T23:13:51.509Z,16.92
2022-08-26T23:16:19.297Z,18.40
2022-08-26T23:18:47.094Z,14.90
2022-08-26T23:21:15.208Z,17.30
2022-08-26T23:23:44.330Z,15.35
2022-08-26T23:26:17.418Z,15.32
2022-08-26T23:28:47.087Z,18.70
2022-08-26T23:31:15.342Z,18.88
2022-08-26T23:34:00.602Z,16.70
2022-08-26T23:36:30.796Z,18.75
2022-08-26T23:39:00.004Z,19.95
2022-08-26T23:41:28.383Z,20.65
2022-08-26T23:44:01.592Z,21.85
2022-08-26T23:46:31.317Z,21.73
2022-08-26T23:48:59.126Z,20.30
2022-08-26T23:51:46.952Z,24.27
2022-08-26T23:54:16.808Z,21.65
2022-08-26T23:56:44.822Z,24.58
2022-08-26T23:59:14.263Z,20.55
